createdAt,value
2023-02-28T00:00:41.414Z,62.02
2023-02-28T00:03:07.902Z,61.86
2023-02-28T00:05:34.389Z,62.66
2023-02-28T00:08:00.950Z,62.79
2023-02-28T00:10:33.248Z,63.58
2023-02-28T00:13:07.326Z,62.93
2023-02-28T00:15:35.082Z,63.05
2023-02-28T00:18:06.400Z,63.97
2023-02-28T00:20:32.921Z,64.07
2023-02-28T00:22:59.396Z,64.38
2023-02-28T00:25:26.444Z,64.96
2023-02-28T00:27:53.421Z,64.58
2023-02-28T00:30:22.414Z,65.22
2023-02-28T00:32:49.495Z,65.54
2023-02-28T00:35:16.526Z,65.81
2023-02-28T00:37:43.483Z,66.16
2023-02-28T00:40:11.027Z,66.20
2023-02-28T00:42:37.573Z,66.90
2023-02-28T00:45:05.752Z,66.75
2023-02-28T00:47:32.848Z,67.20
2023-02-28T00:49:59.407Z,67.45
2023-02-28T00:52:26.536Z,67.18
2023-02-28T00:54:52.968Z,67.33
2023-02-28T00:57:27.383Z,67.53
2023-02-28T00:59:55.979Z,67.70
2023-02-28T01:02:23.914Z,68.15
2023-02-28T01:04:50.582Z,68.25
2023-02-28T01:07:17.225Z,68.50
2023-02-28T01:09:43.577Z,69.35
2023-02-28T01:12:10.127Z,68.95
2023-02-28T01:14:37.084Z,68.52
2023-02-28T01:17:03.611Z,68.65
2023-02-28T01:19:32.764Z,69.21
2023-02-28T01:22:04.446Z,69.74
2023-02-28T01:24:31.864Z,70.26
2023-02-28T01:26:59.597Z,69.45
2023-02-28T01:29:28.089Z,69.70
2023-02-28T01:31:56.683Z,69.40
2023-02-28T01:34:23.230Z,69.67
2023-02-28T01:36:49.695Z,69.55
2023-02-28T01:39:16.164Z,70.15
2023-02-28T01:41:47.516Z,69.82
2023-02-28T01:44:51.379Z,70.11
2023-02-28T01:47:17.881Z,70.21
2023-02-28T01:49:44.422Z,70.84
2023-02-28T01:52:15.904Z,70.59
2023-02-28T01:54:42.357Z,70.83
2023-02-28T01:57:13.825Z,71.08
2023-02-28T01:59:52.710Z,70.98
2023-02-28T02:02:21.818Z,71.19
2023-02-28T02:05:02.664Z,71.04
2023-02-28T02:07:34.249Z,71.00
2023-02-28T02:10:04.235Z,71.49
2023-02-28T02:12:41.085Z,71.18
2023-02-28T02:15:15.339Z,71.80
2023-02-28T02:17:49.341Z,71.10
2023-02-28T02:20:37.591Z,70.94
2023-02-28T02:23:41.770Z,71.66
2023-02-28T02:26:14.056Z,71.52
2023-02-28T02:28:55.859Z,71.15
2023-02-28T02:31:53.093Z,71.39
2023-02-28T02:34:38.072Z,71.69
2023-02-28T02:37:17.453Z,72.05
2023-02-28T02:39:49.879Z,72.50
2023-02-28T02:42:22.424Z,72.51
2023-02-28T02:44:56.837Z,72.80
2023-02-28T02:47:27.245Z,73.16
2023-02-28T02:49:56.532Z,72.46
2023-02-28T02:52:35.416Z,72.75
2023-02-28T02:55:04.560Z,72.82
2023-02-28T02:57:47.522Z,73.17
2023-02-28T03:00:16.609Z,72.85
2023-02-28T03:02:45.566Z,73.41
2023-02-28T03:05:40.660Z,72.93
2023-02-28T03:08:07.393Z,73.72
2023-02-28T03:10:43.446Z,73.36
2023-02-28T03:13:15.249Z,73.10
2023-02-28T03:15:56.273Z,73.37
2023-02-28T03:18:37.335Z,72.89
2023-02-28T03:21:24.889Z,73.38
2023-02-28T03:24:09.561Z,73.42
2023-02-28T03:26:43.288Z,72.89
2023-02-28T03:29:33.957Z,73.87
2023-02-28T03:32:15.414Z,73.34
2023-02-28T03:35:05.754Z,72.53
2023-02-28T03:37:37.327Z,72.45
2023-02-28T03:40:13.755Z,72.17
2023-02-28T03:42:44.529Z,72.24
2023-02-28T03:45:32.289Z,72.75
2023-02-28T03:48:08.545Z,73.04
2023-02-28T03:50:46.226Z,72.19
2023-02-28T03:53:25.532Z,72.14
2023-02-28T03:56:20.181Z,72.94
2023-02-28T03:59:01.309Z,72.60
2023-02-28T04:01:28.266Z,72.19
2023-02-28T04:03:55.042Z,72.55
2023-02-28T04:06:26.504Z,72.66
2023-02-28T04:08:54.120Z,72.50
2023-02-28T04:11:32.981Z,72.74
2023-02-28T04:14:05.636Z,73.06
2023-02-28T04:16:35.616Z,72.80
2023-02-28T04:19:05.828Z,73.28
2023-02-28T04:21:46.414Z,73.05
2023-02-28T04:24:18.138Z,73.41
2023-02-28T04:26:47.700Z,73.31
2023-02-28T04:29:23.617Z,73.06
2023-02-28T04:31:50.355Z,73.17
2023-02-28T04:34:19.981Z,73.73
2023-02-28T04:37:06.111Z,72.89
2023-02-28T04:39:38.088Z,72.72
2023-02-28T04:42:04.965Z,72.99
2023-02-28T04:44:31.552Z,73.11
2023-02-28T04:46:57.940Z,73.00
2023-02-28T04:49:24.760Z,72.59
2023-02-28T04:51:51.216Z,72.28
2023-02-28T04:54:18.972Z,72.31
2023-02-28T04:56:50.921Z,72.21
2023-02-28T04:59:17.630Z,72.46
2023-02-28T05:01:50.066Z,72.06
2023-02-28T05:04:16.514Z,71.99
2023-02-28T05:06:43.245Z,72.04
2023-02-28T05:09:12.378Z,71.36
2023-02-28T05:11:40.064Z,71.61
2023-02-28T05:14:11.220Z,71.26
2023-02-28T05:16:40.585Z,71.08
2023-02-28T05:19:07.113Z,70.63
2023-02-28T05:21:53.833Z,70.35
2023-02-28T05:24:23.769Z,70.30
2023-02-28T05:26:53.070Z,70.69
2023-02-28T05:29:20.169Z,70.51
2023-02-28T05:31:49.381Z,69.74
2023-02-28T05:34:18.450Z,69.55
2023-02-28T05:36:47.686Z,70.08
2023-02-28T05:39:14.388Z,69.74
2023-02-28T05:41:42.764Z,69.38
2023-02-28T05:44:09.805Z,69.59
2023-02-28T05:46:36.305Z,69.36
2023-02-28T05:49:04.756Z,69.61
2023-02-28T05:51:31.721Z,69.88
2023-02-28T05:54:02.442Z,69.11
2023-02-28T05:56:29.388Z,69.46
2023-02-28T05:58:55.867Z,69.43
2023-02-28T06:01:36.759Z,69.35
2023-02-28T06:04:07.211Z,69.61
2023-02-28T06:06:36.883Z,69.77
2023-02-28T06:09:05.710Z,69.10
2023-02-28T06:11:32.632Z,69.21
2023-02-28T06:14:01.430Z,69.61
2023-02-28T06:16:29.100Z,69.25
2023-02-28T06:18:57.968Z,69.08
2023-02-28T06:21:28.835Z,69.31
2023-02-28T06:23:58.952Z,68.61
2023-02-28T06:26:27.552Z,68.63
2023-02-28T06:28:54.424Z,68.78
2023-02-28T06:31:21.690Z,69.01
2023-02-28T06:33:51.084Z,68.73
2023-02-28T06:36:18.211Z,68.87
2023-02-28T06:38:45.426Z,68.78
2023-02-28T06:41:12.372Z,68.67
2023-02-28T06:43:42.590Z,68.97
2023-02-28T06:46:13.328Z,68.31
2023-02-28T06:48:39.951Z,68.88
2023-02-28T06:51:15.159Z,68.41
2023-02-28T06:53:41.605Z,68.27
2023-02-28T06:56:10.515Z,67.97
2023-02-28T06:58:40.119Z,67.78
2023-02-28T07:01:07.574Z,67.18
2023-02-28T07:03:35.814Z,66.88
2023-02-28T07:06:02.769Z,66.75
2023-02-28T07:08:32.546Z,66.48
2023-02-28T07:10:59.395Z,66.57
2023-02-28T07:13:26.072Z,66.39
2023-02-28T07:16:01.324Z,66.50
2023-02-28T07:18:27.880Z,66.51
2023-02-28T07:20:54.545Z,65.85
2023-02-28T07:23:21.543Z,66.17
2023-02-28T07:25:51.563Z,66.28
2023-02-28T07:28:20.518Z,65.33
2023-02-28T07:30:47.119Z,65.64
2023-02-28T07:33:13.852Z,65.08
2023-02-28T07:35:40.536Z,64.79
2023-02-28T07:38:09.609Z,65.21
2023-02-28T07:40:39.558Z,64.06
2023-02-28T07:43:06.001Z,64.15
2023-02-28T07:45:35.400Z,64.11
2023-02-28T07:48:02.840Z,64.03
2023-02-28T07:50:35.468Z,63.93
2023-02-28T07:53:02.242Z,63.14
2023-02-28T07:55:28.661Z,63.54
2023-02-28T07:57:58.291Z,63.31
2023-02-28T08:00:25.149Z,62.11
2023-02-28T08:02:52.268Z,62.11
2023-02-28T08:05:22.329Z,61.94
2023-02-28T08:07:50.438Z,62.25
2023-02-28T08:10:17.015Z,61.76
2023-02-28T08:12:43.470Z,61.59
2023-02-28T08:15:12.746Z,61.38
2023-02-28T08:17:39.325Z,61.88
2023-02-28T08:20:10.171Z,61.82
2023-02-28T08:22:36.762Z,61.85
2023-02-28T08:25:03.559Z,62.25
2023-02-28T08:27:29.962Z,62.01
2023-02-28T08:29:56.322Z,61.46
2023-02-28T08:32:29.889Z,61.52
2023-02-28T08:34:57.528Z,61.41
2023-02-28T08:37:26.774Z,61.22
2023-02-28T08:39:56.089Z,61.16
2023-02-28T08:42:22.888Z,61.20
2023-02-28T08:44:49.280Z,61.39
2023-02-28T08:47:17.987Z,60.90
2023-02-28T08:49:47.229Z,60.70
2023-02-28T08:52:13.672Z,60.54
2023-02-28T08:54:40.164Z,60.09
2023-02-28T08:57:11.168Z,60.31
2023-02-28T08:59:37.597Z,59.56
2023-02-28T09:02:04.065Z,59.22
2023-02-28T09:04:31.960Z,59.58
2023-02-28T09:06:58.492Z,58.96
2023-02-28T09:09:24.988Z,58.77
2023-02-28T09:11:56.675Z,58.99
2023-02-28T09:14:23.128Z,58.48
2023-02-28T09:16:52.452Z,57.38
2023-02-28T09:19:18.923Z,58.09
2023-02-28T09:21:45.297Z,57.28
2023-02-28T09:24:14.559Z,57.46
2023-02-28T09:26:47.179Z,56.66
2023-02-28T09:29:22.316Z,56.69
2023-02-28T09:31:49.101Z,56.67
2023-02-28T09:34:15.726Z,56.47
2023-02-28T09:36:46.448Z,56.09
2023-02-28T09:39:16.804Z,56.37
2023-02-28T09:41:52.135Z,55.85
2023-02-28T09:44:43.928Z,56.49
2023-02-28T09:47:17.829Z,55.52
2023-02-28T09:49:48.678Z,54.71
2023-02-28T09:52:21.836Z,54.28
2023-02-28T09:54:48.332Z,53.89
2023-02-28T09:57:26.576Z,53.50
2023-02-28T10:00:15.590Z,54.07
2023-02-28T10:03:01.134Z,54.11
2023-02-28T10:05:44.544Z,53.73
2023-02-28T10:09:04.756Z,53.28
2023-02-28T10:11:36.597Z,53.16
2023-02-28T10:14:16.550Z,53.40
2023-02-28T10:17:06.341Z,53.01
2023-02-28T10:19:45.348Z,53.21
2023-02-28T10:22:22.343Z,52.55
2023-02-28T10:24:54.176Z,53.09
2023-02-28T10:27:24.619Z,53.61
2023-02-28T10:29:54.397Z,54.13
2023-02-28T10:32:31.945Z,53.11
2023-02-28T10:35:02.156Z,52.95
2023-02-28T10:37:29.483Z,53.37
2023-02-28T10:40:03.226Z,52.95
2023-02-28T10:42:30.842Z,52.99
2023-02-28T10:45:11.875Z,52.14
2023-02-28T10:47:59.049Z,53.00
2023-02-28T10:50:54.592Z,53.40
2023-02-28T10:53:27.036Z,53.45
2023-02-28T10:56:10.535Z,53.65
2023-02-28T10:58:50.710Z,52.64
2023-02-28T11:01:21.138Z,50.64
2023-02-28T11:03:47.816Z,51.86
2023-02-28T11:06:21.972Z,49.52
2023-02-28T11:09:03.638Z,49.97
2023-02-28T11:11:41.812Z,49.78
2023-02-28T11:14:21.257Z,49.42
2023-02-28T11:16:49.415Z,49.34
2023-02-28T11:19:26.500Z,49.33
2023-02-28T11:22:01.630Z,49.04
2023-02-28T11:24:38.037Z,48.58
2023-02-28T11:27:04.947Z,48.33
2023-02-28T11:29:35.850Z,48.46
2023-02-28T11:32:12.597Z,48.05
2023-02-28T11:34:40.339Z,48.35
2023-02-28T11:37:16.297Z,47.83
2023-02-28T11:39:43.888Z,47.63
2023-02-28T11:42:29.836Z,47.38
2023-02-28T11:45:01.337Z,47.65
2023-02-28T11:47:33.977Z,47.54
2023-02-28T11:50:23.441Z,48.56
2023-02-28T11:52:55.087Z,47.85
2023-02-28T11:55:42.312Z,47.97
2023-02-28T11:58:14.422Z,47.29
2023-02-28T12:01:17.607Z,47.65
2023-02-28T12:03:59.068Z,47.88
2023-02-28T12:06:41.272Z,47.64
2023-02-28T12:09:34.384Z,47.94
2023-02-28T12:12:25.554Z,46.82
2023-02-28T12:14:54.795Z,47.03
2023-02-28T12:17:42.237Z,46.10
2023-02-28T12:20:27.437Z,45.97
2023-02-28T12:23:11.569Z,46.74
2023-02-28T12:25:56.744Z,46.39
2023-02-28T12:28:29.587Z,46.34
2023-02-28T12:31:23.052Z,46.59
2023-02-28T12:33:56.874Z,46.46
2023-02-28T12:36:24.809Z,47.22
2023-02-28T12:39:16.498Z,47.16
2023-02-28T12:42:06.476Z,47.92
2023-02-28T12:44:45.586Z,47.58
2023-02-28T12:47:16.885Z,47.12
2023-02-28T12:49:55.397Z,48.25
2023-02-28T12:52:38.824Z,47.90
2023-02-28T12:55:42.454Z,47.68
2023-02-28T12:58:34.356Z,47.53
2023-02-28T13:01:28.780Z,46.39
2023-02-28T13:04:22.059Z,47.07
2023-02-28T13:06:51.475Z,46.92
2023-02-28T13:09:19.226Z,48.23
2023-02-28T13:11:50.556Z,47.48
2023-02-28T13:14:35.201Z,46.98
2023-02-28T13:17:13.022Z,47.38
2023-02-28T13:19:54.931Z,46.96
2023-02-28T13:22:45.175Z,46.95
2023-02-28T13:25:23.803Z,47.60
2023-02-28T13:27:57.268Z,47.32
2023-02-28T13:30:51.620Z,47.68
2023-02-28T13:33:24.088Z,48.08
2023-02-28T13:36:01.340Z,48.08
2023-02-28T13:38:36.699Z,48.50
2023-02-28T13:41:37.095Z,47.65
2023-02-28T13:44:03.538Z,47.78
2023-02-28T13:46:30.903Z,47.27
2023-02-28T13:48:57.656Z,48.07
2023-02-28T13:51:48.920Z,47.87
2023-02-28T13:54:36.746Z,46.94
2023-02-28T13:57:21.949Z,47.95
2023-02-28T14:00:06.746Z,48.25
2023-02-28T14:03:06.806Z,47.76
2023-02-28T14:05:35.375Z,46.75
2023-02-28T14:08:24.063Z,47.34
2023-02-28T14:11:05.635Z,46.78
2023-02-28T14:13:48.238Z,47.42
2023-02-28T14:16:21.150Z,47.73
2023-02-28T14:18:59.649Z,47.72
2023-02-28T14:21:33.207Z,48.07
2023-02-28T14:24:20.767Z,47.33
2023-02-28T14:26:59.379Z,47.58
2023-02-28T14:29:44.266Z,47.53
2023-02-28T14:32:22.917Z,46.84
2023-02-28T14:35:02.271Z,47.28
2023-02-28T14:37:38.413Z,47.23
2023-02-28T14:40:05.945Z,47.53
2023-02-28T14:42:44.887Z,47.77
2023-02-28T14:45:22.225Z,48.36
2023-02-28T14:47:50.974Z,47.22
2023-02-28T14:50:28.097Z,47.37
2023-02-28T14:52:58.588Z,47.47
2023-02-28T14:55:29.730Z,47.70
2023-02-28T14:58:00.470Z,48.01
2023-02-28T15:00:31.333Z,47.97
2023-02-28T15:03:00.070Z,48.33
2023-02-28T15:05:28.655Z,48.40
2023-02-28T15:08:11.315Z,48.90
2023-02-28T15:10:38.264Z,49.04
2023-02-28T15:13:16.335Z,49.03
2023-02-28T15:16:01.879Z,48.69
2023-02-28T15:18:28.969Z,48.96
2023-02-28T15:20:58.051Z,48.90
2023-02-28T15:23:25.062Z,49.04
2023-02-28T15:25:53.527Z,49.63
2023-02-28T15:28:22.934Z,50.12
2023-02-28T15:30:57.880Z,49.65
2023-02-28T15:33:30.641Z,49.71
2023-02-28T15:36:22.069Z,49.94
2023-02-28T15:38:52.839Z,50.28
2023-02-28T15:41:29.020Z,50.25
2023-02-28T15:44:18.060Z,50.76
2023-02-28T15:46:55.874Z,50.12
2023-02-28T15:49:24.340Z,51.35
2023-02-28T15:51:58.964Z,51.21
2023-02-28T15:54:30.883Z,50.85
2023-02-28T15:57:01.688Z,51.23
2023-02-28T15:59:30.772Z,51.36
2023-02-28T16:02:32.372Z,51.69
2023-02-28T16:05:11.099Z,51.28
2023-02-28T16:07:42.054Z,51.29
2023-02-28T16:10:10.630Z,52.09
2023-02-28T16:12:41.213Z,51.89
2023-02-28T16:15:18.187Z,52.02
2023-02-28T16:17:45.872Z,51.97
2023-02-28T16:20:27.070Z,52.32
2023-02-28T16:22:53.995Z,52.75
2023-02-28T16:25:25.751Z,53.09
2023-02-28T16:27:58.521Z,52.65
2023-02-28T16:30:27.314Z,52.85
2023-02-28T16:32:56.183Z,52.64
2023-02-28T16:35:23.136Z,52.73
2023-02-28T16:37:52.333Z,52.38
2023-02-28T16:40:26.546Z,52.52
2023-02-28T16:43:00.654Z,52.34
2023-02-28T16:45:29.648Z,53.29
2023-02-28T16:47:56.552Z,52.53
2023-02-28T16:50:31.333Z,53.26
2023-02-28T16:52:57.893Z,52.52
2023-02-28T16:55:26.456Z,53.76
2023-02-28T16:58:01.404Z,53.17
2023-02-28T17:00:29.915Z,53.59
2023-02-28T17:02:57.023Z,54.32
2023-02-28T17:05:24.867Z,53.97
2023-02-28T17:07:51.337Z,54.58
2023-02-28T17:10:29.720Z,54.41
2023-02-28T17:13:06.000Z,54.19
2023-02-28T17:15:39.811Z,54.71
2023-02-28T17:18:12.320Z,54.58
2023-02-28T17:20:38.922Z,54.01
2023-02-28T17:23:05.493Z,54.19
2023-02-28T17:25:31.912Z,54.11
2023-02-28T17:28:00.913Z,54.85
2023-02-28T17:30:28.522Z,55.04
2023-02-28T17:32:56.466Z,55.03
2023-02-28T17:35:23.705Z,55.25
2023-02-28T17:37:50.977Z,55.50
2023-02-28T17:40:22.020Z,54.61
2023-02-28T17:42:48.685Z,55.20
2023-02-28T17:45:16.114Z,55.28
2023-02-28T17:47:46.577Z,55.31
2023-02-28T17:50:19.429Z,55.20
2023-02-28T17:52:45.811Z,55.02
2023-02-28T17:55:12.938Z,55.87
2023-02-28T17:57:39.990Z,55.53
2023-02-28T18:00:07.762Z,55.00
2023-02-28T18:02:34.371Z,54.92
2023-02-28T18:05:01.040Z,55.46
2023-02-28T18:07:30.014Z,55.88
2023-02-28T18:09:56.374Z,56.08
2023-02-28T18:12:22.769Z,55.72
2023-02-28T18:14:49.145Z,55.19
2023-02-28T18:17:15.517Z,55.91
2023-02-28T18:19:46.871Z,55.08
2023-02-28T18:22:15.821Z,55.56
2023-02-28T18:24:42.164Z,56.27
2023-02-28T18:27:08.923Z,56.52
2023-02-28T18:29:39.190Z,56.34
2023-02-28T18:32:07.093Z,56.48
2023-02-28T18:34:33.613Z,56.53
2023-02-28T18:37:05.038Z,56.79
2023-02-28T18:39:32.250Z,57.19
2023-02-28T18:41:58.962Z,56.77
2023-02-28T18:44:25.339Z,56.88
2023-02-28T18:46:54.223Z,57.05
2023-02-28T18:49:23.365Z,56.89
2023-02-28T18:51:49.735Z,56.81
2023-02-28T18:54:20.734Z,57.52
2023-02-28T18:56:47.305Z,57.47
2023-02-28T18:59:13.770Z,57.39
2023-02-28T19:01:42.892Z,56.94
2023-02-28T19:04:13.001Z,57.46
2023-02-28T19:06:39.645Z,57.61
2023-02-28T19:09:08.675Z,57.78
2023-02-28T19:11:36.664Z,58.05
2023-02-28T19:14:03.409Z,58.39
2023-02-28T19:16:32.827Z,58.39
2023-02-28T19:18:59.498Z,58.07
2023-02-28T19:21:26.107Z,58.27
2023-02-28T19:23:53.067Z,58.46
2023-02-28T19:26:24.355Z,58.60
2023-02-28T19:28:51.074Z,59.00
2023-02-28T19:31:23.163Z,58.82
2023-02-28T19:33:52.961Z,58.31
2023-02-28T19:36:20.428Z,58.49
2023-02-28T19:38:47.250Z,58.42
2023-02-28T19:41:15.702Z,58.06
2023-02-28T19:43:42.655Z,58.94
2023-02-28T19:46:10.183Z,59.00
2023-02-28T19:48:44.815Z,59.29
2023-02-28T19:53:48.899Z,59.69
2023-02-28T19:56:15.477Z,59.93
2023-02-28T19:58:41.852Z,59.32
2023-02-28T20:01:14.495Z,59.79
2023-02-28T20:03:41.714Z,59.63
2023-02-28T20:06:15.255Z,59.63
2023-02-28T20:08:42.495Z,60.10
2023-02-28T20:11:11.652Z,59.96
2023-02-28T20:13:40.873Z,60.54
2023-02-28T20:16:10.049Z,60.90
2023-02-28T20:18:38.182Z,60.37
2023-02-28T20:21:05.018Z,60.53
2023-02-28T20:23:31.442Z,60.65
2023-02-28T20:26:03.429Z,60.31
2023-02-28T20:28:30.105Z,60.72
2023-02-28T20:31:01.352Z,60.64
2023-02-28T20:33:30.289Z,61.51
2023-02-28T20:36:01.521Z,61.07
2023-02-28T20:38:28.198Z,61.39
2023-02-28T20:40:56.325Z,61.09
2023-02-28T20:43:23.704Z,61.06
2023-02-28T20:45:54.075Z,61.11
2023-02-28T20:48:20.777Z,60.79
2023-02-28T20:50:52.693Z,60.86
2023-02-28T20:53:19.886Z,60.71
2023-02-28T20:56:03.066Z,61.40
2023-02-28T20:58:35.533Z,61.53
2023-02-28T21:01:01.920Z,61.55
2023-02-28T21:03:28.531Z,61.22
2023-02-28T21:06:01.323Z,61.52
2023-02-28T21:08:27.788Z,61.59
2023-02-28T21:10:54.905Z,62.12
2023-02-28T21:13:21.452Z,61.94
2023-02-28T21:15:47.899Z,61.88
2023-02-28T21:18:15.862Z,62.34
2023-02-28T21:20:44.823Z,62.31
2023-02-28T21:23:11.851Z,62.43
2023-02-28T21:25:40.926Z,63.16
2023-02-28T21:28:07.937Z,62.85
2023-02-28T21:30:39.629Z,62.03
2023-02-28T21:33:08.393Z,61.88
2023-02-28T21:35:35.053Z,62.41
2023-02-28T21:38:01.449Z,62.65
2023-02-28T21:40:27.954Z,62.68
2023-02-28T21:42:54.394Z,62.50
2023-02-28T21:45:20.912Z,62.18
2023-02-28T21:47:47.537Z,63.22
2023-02-28T21:50:14.078Z,62.74
2023-02-28T21:52:41.604Z,62.73
2023-02-28T21:55:10.510Z,63.58
2023-02-28T21:57:36.954Z,63.04
2023-02-28T22:00:04.847Z,63.59
2023-02-28T22:02:31.242Z,64.17
2023-02-28T22:05:03.351Z,65.20
2023-02-28T22:07:30.176Z,64.43
2023-02-28T22:09:56.617Z,64.86
2023-02-28T22:12:22.996Z,65.02
2023-02-28T22:14:49.691Z,65.11
2023-02-28T22:17:16.212Z,64.57
2023-02-28T22:19:42.884Z,65.09
2023-02-28T22:22:09.243Z,65.51
2023-02-28T22:24:35.972Z,65.24
2023-02-28T22:27:02.386Z,65.60
2023-02-28T22:29:31.116Z,65.52
2023-02-28T22:31:59.724Z,65.09
2023-02-28T22:34:26.187Z,64.77
2023-02-28T22:36:52.539Z,65.09
2023-02-28T22:39:21.319Z,64.59
2023-02-28T22:41:52.268Z,64.37
2023-02-28T22:44:18.713Z,64.67
2023-02-28T22:46:45.250Z,64.59
2023-02-28T22:49:11.583Z,64.51
2023-02-28T22:51:37.956Z,65.04
2023-02-28T22:54:04.680Z,65.08
2023-02-28T22:56:31.532Z,65.22
2023-02-28T22:59:00.004Z,65.08
2023-02-28T23:01:29.013Z,65.31
2023-02-28T23:03:55.449Z,65.40
2023-02-28T23:06:23.613Z,65.51
2023-02-28T23:08:51.624Z,65.92
2023-02-28T23:11:22.341Z,65.45
2023-02-28T23:13:58.419Z,66.31
2023-02-28T23:16:36.738Z,65.70
2023-02-28T23:19:07.468Z,66.08
2023-02-28T23:21:35.093Z,66.23
2023-02-28T23:24:03.126Z,66.73
2023-02-28T23:26:31.646Z,66.79
2023-02-28T23:29:01.311Z,66.33
2023-02-28T23:31:27.871Z,66.53
2023-02-28T23:33:56.335Z,66.09
2023-02-28T23:36:23.268Z,66.82
2023-02-28T23:38:54.248Z,66.46
2023-02-28T23:41:22.440Z,66.92
2023-02-28T23:43:50.890Z,66.57
2023-02-28T23:46:17.379Z,66.78
2023-02-28T23:48:47.394Z,67.10
2023-02-28T23:51:19.681Z,66.89
2023-02-28T23:53:48.521Z,67.11
2023-02-28T23:56:17.220Z,66.20
2023-02-28T23:58:45.723Z,66.76
